Time;durP1;ratioP1;P1;durP2;ratioP2;P2;SDS_P1;SDS_P2;PMS_P1;PMS_P2;Temp;Humidity;BMP_temperature;BMP_pressure;BME280_temperature;BME280_humidity;BME280_pressure;Samples;Min_cycle;Max_cycle;Signal;HPM_P1;HPM_P2
2022/06/12 00:01:53;;;;;;;4.68;2.45;;;17.10;99.90;;;17.08;89.41;97787.34;5039568;28;20025;-40
2022/06/12 00:04:20;;;;;;;4.68;2.60;;;17.20;99.90;;;17.08;89.05;97776.69;5032373;28;20045;-40
2022/06/12 00:06:48;;;;;;;3.35;2.25;;;17.20;99.90;;;17.15;88.43;97788.72;5023693;28;20047;-39
2022/06/12 00:09:14;;;;;;;4.97;2.15;;;17.20;99.90;;;17.14;88.42;97790.53;5024276;28;20030;-40
2022/06/12 00:11:41;;;;;;;3.97;2.38;;;17.30;99.90;;;17.10;89.48;97780.13;5034404;28;20025;-39
2022/06/12 00:14:07;;;;;;;5.97;2.35;;;17.20;99.90;;;17.02;90.51;97785.91;5015365;28;20401;-39
2022/06/12 00:16:35;;;;;;;3.83;2.17;;;17.10;99.90;;;16.92;90.85;97780.25;5019290;28;20032;-39
2022/06/12 00:19:02;;;;;;;3.58;2.47;;;17.10;99.90;;;16.89;91.98;97782.22;5027762;28;20078;-39
2022/06/12 00:21:31;;;;;;;3.53;2.30;;;17.00;99.90;;;16.81;92.80;97779.94;5025179;28;20087;-39
2022/06/12 00:24:06;;;;;;;4.97;2.10;;;16.90;99.90;;;16.75;93.07;97780.28;5021464;28;20033;-39
2022/06/12 00:26:42;;;;;;;6.25;2.38;;;16.80;99.90;;;16.70;93.43;97783.19;5015937;28;20182;-39
2022/06/12 00:29:12;;;;;;;7.50;2.50;;;16.80;99.90;;;16.67;93.65;97782.50;5020578;28;20082;-39
2022/06/12 00:31:44;;;;;;;3.22;2.40;;;16.80;99.90;;;16.68;93.00;97774.44;5033104;28;20037;-39
2022/06/12 00:34:12;;;;;;;4.97;2.65;;;16.80;99.90;;;16.68;93.16;97782.44;5017170;28;20049;-39
2022/06/12 00:36:38;;;;;;;6.50;3.00;;;16.80;99.90;;;16.65;93.61;97784.41;5027301;28;20478;-39
2022/06/12 00:39:06;;;;;;;4.50;2.65;;;16.80;99.90;;;16.60;94.46;97782.88;5027271;28;20017;-39
2022/06/12 00:41:33;;;;;;;3.67;2.47;;;16.70;99.90;;;16.56;95.04;97775.13;5019452;28;20474;-40
2022/06/12 00:43:59;;;;;;;3.25;2.42;;;16.70;99.90;;;16.49;95.77;97771.97;5036526;28;20033;-39
2022/06/12 00:46:50;;;;;;;5.65;2.78;;;16.60;99.90;;;16.44;96.26;97770.47;5014068;28;20156;-39
2022/06/12 00:49:18;;;;;;;4.05;2.92;;;16.50;99.90;;;16.38;97.10;97769.88;5017821;28;20121;-39
2022/06/12 00:51:49;;;;;;;5.22;3.10;;;16.50;99.90;;;16.34;97.85;97778.09;5024617;28;20029;-40
2022/06/12 00:54:16;;;;;;;4.90;3.50;;;16.40;99.90;;;16.29;98.72;97777.50;5040927;23;20072;-36
2022/06/12 00:56:49;;;;;;;5.80;3.33;;;16.40;99.90;;;16.25;99.51;97783.94;5046887;28;20107;-36
2022/06/12 00:59:44;;;;;;;8.25;3.15;;;16.30;99.90;;;16.19;100.00;97778.00;5041335;28;20033;-36
2022/06/12 01:02:15;;;;;;;5.63;3.38;;;16.30;99.90;;;16.17;100.00;97774.56;5043658;28;20024;-37
2022/06/12 01:07:33;;;;;;;6.00;3.70;;;16.20;99.90;;;16.08;100.00;97772.38;5046081;28;20032;-37
2022/06/12 01:10:05;;;;;;;6.95;3.35;;;16.20;99.90;;;16.06;100.00;97766.28;5047896;28;20025;-36
2022/06/12 01:12:37;;;;;;;6.38;4.20;;;16.20;99.90;;;16.04;100.00;97762.81;5046985;28;20044;-36
2022/06/12 01:15:16;;;;;;;6.35;3.63;;;16.20;99.90;;;16.05;100.00;97764.56;5043825;28;20036;-36
2022/06/12 01:17:43;;;;;;;5.68;3.85;;;16.20;99.90;;;16.05;100.00;97767.22;5045067;28;20116;-36
2022/06/12 01:20:15;;;;;;;4.93;3.75;;;16.20;99.90;;;16.02;100.00;97768.25;5062823;28;20111;-37
2022/06/12 01:23:02;;;;;;;6.25;4.07;;;16.20;99.90;;;16.06;100.00;97773.41;5044120;28;20017;-36
2022/06/12 01:25:34;;;;;;;5.93;3.85;;;16.20;99.90;;;16.05;100.00;97769.03;5048073;28;20123;-37
2022/06/12 01:28:18;;;;;;;6.47;3.90;;;16.20;99.90;;;15.99;100.00;97772.88;5045377;28;20111;-36
2022/06/12 01:31:01;;;;;;;7.13;3.75;;;16.10;99.90;;;15.93;100.00;97762.56;5044212;28;20033;-36
2022/06/12 01:33:51;;;;;;;5.38;3.70;;;16.10;99.90;;;15.90;100.00;97763.59;5062743;28;20037;-36
2022/06/12 01:36:39;;;;;;;6.38;3.90;;;16.00;99.90;;;15.86;100.00;97764.66;5041521;28;20021;-36
2022/06/12 01:39:37;;;;;;;5.47;3.35;;;16.00;99.90;;;15.81;100.00;97761.41;5063023;28;20025;-37
2022/06/12 01:42:19;;;;;;;5.30;3.70;;;15.90;99.90;;;15.75;100.00;97762.56;5046967;28;20032;-36
2022/06/12 01:45:16;;;;;;;4.57;3.75;;;15.90;99.90;;;15.68;100.00;97771.75;5046107;28;20663;-36
2022/06/12 01:48:12;;;;;;;3.58;3.08;;;15.80;99.90;;;15.62;100.00;97766.78;5045052;28;20120;-36
2022/06/12 01:51:02;;;;;;;6.38;3.40;;;15.70;99.90;;;15.53;100.00;97773.44;5040797;28;20045;-36
2022/06/12 01:53:49;;;;;;;4.78;3.35;;;15.70;99.90;;;15.45;100.00;97765.84;5046230;28;20029;-37
2022/06/12 01:56:43;;;;;;;4.80;2.95;;;15.60;99.90;;;15.35;100.00;97755.75;5042331;28;20512;-36
2022/06/12 01:59:26;;;;;;;5.32;3.55;;;15.60;99.90;;;15.35;100.00;97764.59;5043182;28;20048;-36
2022/06/12 02:02:17;;;;;;;5.20;3.55;;;15.50;99.90;;;15.32;100.00;97761.22;5046126;28;20029;-36
2022/06/12 02:04:58;;;;;;;4.75;3.55;;;15.40;99.90;;;15.26;100.00;97759.75;5044802;28;20112;-36
2022/06/12 02:07:32;;;;;;;5.75;3.60;;;15.40;99.90;;;15.19;100.00;97753.00;5047028;28;20025;-36
2022/06/12 02:10:23;;;;;;;5.00;2.78;;;15.40;99.90;;;15.12;100.00;97749.78;5044900;28;20031;-36
2022/06/12 02:13:12;;;;;;;3.42;2.80;;;15.30;99.90;;;15.11;100.00;97752.53;5044611;28;20500;-36
2022/06/12 02:15:49;;;;;;;4.95;2.85;;;15.30;99.90;;;14.96;100.00;97736.41;5055124;28;20028;-36
2022/06/12 02:18:27;;;;;;;5.13;3.13;;;15.20;99.90;;;15.12;100.00;97756.91;5047298;28;20024;-36
2022/06/12 02:21:10;;;;;;;4.85;2.90;;;15.30;99.90;;;15.10;100.00;97756.13;5044748;28;20060;-36
2022/06/12 02:23:49;;;;;;;3.50;2.72;;;15.20;99.90;;;15.06;100.00;97758.94;5047225;28;20039;-37
2022/06/12 02:26:20;;;;;;;5.82;3.17;;;15.20;99.90;;;15.04;100.00;97763.47;5035111;28;20017;-36
2022/06/12 02:28:58;;;;;;;3.35;3.00;;;15.20;99.90;;;15.02;100.00;97762.69;5045436;28;20028;-37
2022/06/12 02:31:35;;;;;;;4.90;3.30;;;15.20;99.90;;;15.01;100.00;97758.28;5060267;28;20029;-36
2022/06/12 02:34:12;;;;;;;4.95;3.50;;;15.20;99.90;;;14.99;100.00;97757.50;5036916;28;20091;-36
2022/06/12 02:36:47;;;;;;;5.15;3.67;;;15.20;99.90;;;15.01;100.00;97760.94;5043190;28;20020;-36
2022/06/12 02:39:21;;;;;;;4.63;3.78;;;15.20;99.90;;;15.02;100.00;97762.69;5042340;28;20025;-36
2022/06/12 02:42:01;;;;;;;5.30;3.80;;;15.20;99.90;;;14.99;100.00;97760.16;5044487;28;20036;-36
2022/06/12 02:44:42;;;;;;;4.65;3.60;;;15.20;99.90;;;14.94;100.00;97764.84;5040982;28;20025;-36
2022/06/12 02:47:18;;;;;;;6.45;3.60;;;15.10;99.90;;;14.93;100.00;97765.78;5039452;28;20032;-36
2022/06/12 02:49:47;;;;;;;5.75;3.95;;;15.10;99.90;;;14.88;100.00;97755.38;5045911;28;20435;-36
2022/06/12 02:52:27;;;;;;;7.43;4.38;;;15.10;99.90;;;14.84;100.00;97758.25;5039955;28;20053;-36
2022/06/12 02:55:05;;;;;;;5.70;4.00;;;15.00;99.90;;;14.79;100.00;97752.31;5045620;28;20044;-36
2022/06/12 02:57:40;;;;;;;6.22;4.05;;;15.00;99.90;;;14.75;100.00;97759.56;5049094;28;20112;-36
2022/06/12 03:00:32;;;;;;;5.68;3.92;;;15.00;99.90;;;14.69;100.00;97760.69;5044981;28;20431;-36
2022/06/12 03:03:30;;;;;;;6.47;4.43;;;14.90;99.90;;;14.63;100.00;97757.50;5045490;28;20021;-36
2022/06/12 03:05:59;;;;;;;6.38;4.07;;;14.80;99.90;;;14.59;100.00;97759.44;5042077;28;20431;-37
2022/06/12 03:08:31;;;;;;;6.05;4.25;;;14.70;99.90;;;14.56;100.00;97761.34;5042075;28;20035;-36
2022/06/12 03:11:20;;;;;;;5.82;4.07;;;14.70;99.90;;;14.51;100.00;97757.09;5044476;28;20064;-37
2022/06/12 03:13:48;;;;;;;5.82;4.35;;;14.70;99.90;;;14.49;100.00;97752.81;5041011;28;20040;-36
2022/06/12 03:16:23;;;;;;;5.78;4.00;;;14.70;99.90;;;14.48;100.00;97757.25;5058122;28;20028;-36
2022/06/12 03:18:56;;;;;;;5.65;3.83;;;14.70;99.90;;;14.46;100.00;97756.47;5045399;28;20036;-36
2022/06/12 03:21:32;;;;;;;7.35;4.40;;;14.60;99.90;;;14.46;100.00;97758.25;5045444;28;20098;-36
2022/06/12 03:24:31;;;;;;;5.68;4.20;;;14.60;99.90;;;14.45;100.00;97757.41;5048805;28;20551;-36
2022/06/12 03:27:25;;;;;;;7.47;4.60;;;14.60;99.90;;;14.45;100.00;97764.50;5050385;28;20431;-36
2022/06/12 03:30:12;;;;;;;8.90;5.15;;;14.70;99.90;;;14.45;100.00;97762.72;5044891;28;20090;-37
2022/06/12 03:32:53;;;;;;;7.25;4.05;;;14.70;99.90;;;14.45;100.00;97754.75;5047596;28;20036;-36
2022/06/12 03:35:36;;;;;;;6.07;4.45;;;14.70;99.90;;;14.47;100.00;97757.34;5049733;28;20099;-36
2022/06/12 03:38:14;;;;;;;9.52;5.82;;;14.70;99.90;;;14.47;100.00;97758.19;5049005;28;20024;-36
2022/06/12 03:40:55;;;;;;;15.77;6.55;;;14.70;99.90;;;14.47;100.00;97754.69;5049069;28;20563;-36
2022/06/12 03:44:06;;;;;;;15.10;6.65;;;14.70;99.90;;;14.52;100.00;97763.28;5040926;28;20025;-36
2022/06/12 03:46:55;;;;;;;17.98;7.85;;;14.70;99.90;;;14.51;100.00;97757.09;5047610;28;20025;-36
2022/06/12 03:49:50;;;;;;;26.25;10.50;;;14.70;99.90;;;14.52;100.00;97761.50;5039358;28;20489;-37
2022/06/12 03:52:52;;;;;;;30.75;13.15;;;14.70;99.90;;;14.52;100.00;97761.50;5054472;28;20798;-36
2022/06/12 03:58:28;;;;;;;22.92;8.82;;;14.70;99.90;;;14.55;100.00;97768.44;5010887;28;20048;-36
2022/06/12 04:00:55;;;;;;;13.50;7.40;;;14.70;99.90;;;14.57;100.00;97765.72;5047881;28;20235;-36
2022/06/12 04:03:32;;;;;;;12.85;7.03;;;14.80;99.90;;;14.61;100.00;97768.19;5064470;28;20029;-37
2022/06/12 04:06:08;;;;;;;11.60;6.47;;;14.80;99.90;;;14.66;100.00;97762.66;5057030;28;20033;-36
2022/06/12 04:08:39;;;;;;;9.07;5.05;;;14.90;99.90;;;14.72;100.00;97757.06;5047384;28;20293;-36
2022/06/12 04:11:11;;;;;;;8.43;5.07;;;14.90;99.90;;;14.83;100.00;97759.19;5048380;28;20029;-36
2022/06/12 04:13:39;;;;;;;8.82;5.60;;;15.00;99.90;;;14.83;100.00;97753.88;5045957;28;20485;-36
2022/06/12 04:16:30;;;;;;;7.50;4.90;;;15.10;99.90;;;14.96;100.00;97767.44;5042952;28;20115;-36
2022/06/12 04:18:56;;;;;;;10.20;6.60;;;15.10;99.90;;;15.02;100.00;97762.69;5041175;28;20075;-36
2022/06/12 04:21:32;;;;;;;10.13;6.28;;;15.20;99.90;;;15.10;100.00;97764.09;5060125;28;20107;-36
2022/06/12 04:24:08;;;;;;;9.57;6.07;;;15.30;99.90;;;15.17;100.00;97765.53;5046768;28;20029;-36
2022/06/12 04:26:53;;;;;;;8.52;5.40;;;15.30;99.90;;;15.26;100.00;97763.25;5046667;28;20036;-36
2022/06/12 04:29:28;;;;;;;5.82;4.40;;;15.40;99.90;;;15.34;100.00;97762.84;5047303;28;20025;-36
2022/06/12 04:32:00;;;;;;;5.82;4.13;;;15.50;99.90;;;15.42;100.00;97759.81;5046509;28;20038;-36
2022/06/12 04:34:34;;;;;;;4.13;3.70;;;15.60;99.90;;;15.50;100.00;97764.75;5048594;28;20457;-36
2022/06/12 04:37:13;;;;;;;6.75;4.22;;;15.60;99.90;;;15.56;100.00;97762.66;5047368;28;20040;-40
2022/06/12 04:39:40;;;;;;;6.05;4.35;;;15.70;99.90;;;15.62;100.00;97758.81;5049136;28;20029;-36
2022/06/12 04:42:07;;;;;;;6.25;4.05;;;15.80;99.90;;;15.72;100.00;97762.72;5041037;28;20054;-36
2022/06/12 04:44:33;;;;;;;5.30;4.28;;;15.90;99.90;;;15.80;100.00;97757.88;5041393;28;20029;-37
2022/06/12 04:47:02;;;;;;;6.88;4.60;;;16.00;99.90;;;15.92;100.00;97767.03;5041932;28;20098;-36
2022/06/12 04:49:32;;;;;;;4.53;3.92;;;16.10;99.90;;;15.93;100.00;97749.25;5044371;28;20029;-36
2022/06/12 04:52:01;;;;;;;5.38;3.95;;;16.20;99.90;;;16.21;100.00;97776.09;5045899;28;20069;-36
2022/06/12 04:54:29;;;;;;;4.35;3.22;;;16.30;99.90;;;16.33;100.00;97777.25;5041420;28;20030;-36
2022/06/12 04:56:55;;;;;;;5.97;3.58;;;16.40;99.90;;;16.65;100.00;97771.09;5050984;28;20025;-37
2022/06/12 04:59:21;;;;;;;6.05;2.90;;;16.60;99.90;;;17.20;100.00;97781.31;5047977;28;20067;-37
2022/06/12 05:01:48;;;;;;;4.85;3.25;;;16.90;99.90;;;17.92;100.00;97778.88;5048120;28;20040;-37
2022/06/12 05:04:16;;;;;;;5.70;3.42;;;17.40;99.90;;;18.92;95.90;97782.50;5044687;28;20052;-37
2022/06/12 05:06:44;;;;;;;5.15;2.80;;;18.00;99.90;;;19.84;89.17;97789.78;5047125;28;20025;-37
2022/06/12 05:09:13;;;;;;;5.20;2.97;;;18.60;99.90;;;20.92;82.90;97787.56;5045546;28;20048;-37
2022/06/12 05:11:39;;;;;;;4.38;2.75;;;19.30;99.90;;;21.69;74.46;97793.47;5045066;28;20109;-37
2022/06/12 05:14:05;;;;;;;4.35;2.83;;;19.90;99.90;;;22.73;71.62;97789.00;5046579;28;20055;-37
2022/06/12 05:16:48;;;;;;;3.78;3.08;;;20.60;99.90;;;23.76;63.93;97796.72;5044087;28;20469;-37
2022/06/12 05:19:20;;;;;;;3.47;2.70;;;21.50;99.90;;;24.54;59.07;97796.41;5062768;28;20064;-37
2022/06/12 05:21:46;;;;;;;6.22;3.20;;;22.10;99.90;;;25.17;55.64;97801.56;5060642;28;20188;-38
2022/06/12 05:24:12;;;;;;;3.58;2.60;;;22.60;99.90;;;25.70;52.21;97806.66;5049257;28;20094;-37
2022/06/12 05:26:39;;;;;;;4.45;2.63;;;23.20;99.90;;;26.03;50.35;97801.81;5044166;28;20066;-37
2022/06/12 05:29:10;;;;;;;4.18;3.08;;;23.60;99.90;;;25.99;48.50;97803.09;5045471;28;20033;-37
2022/06/12 05:31:36;;;;;;;3.47;2.90;;;23.80;99.90;;;25.69;49.90;97804.06;5045361;28;20464;-37
2022/06/12 05:34:02;;;;;;;4.60;2.50;;;23.60;99.90;;;25.09;52.51;97801.44;5045033;28;20036;-37
2022/06/12 05:36:28;;;;;;;3.90;2.22;;;23.40;99.90;;;24.34;55.56;97798.97;5047180;28;20020;-37
2022/06/12 05:38:54;;;;;;;3.25;2.30;;;23.10;99.90;;;23.63;58.86;97793.31;5047440;28;20503;-37
2022/06/12 05:41:20;;;;;;;3.05;2.33;;;22.70;99.90;;;23.01;61.98;97786.78;5041700;28;20048;-37
2022/06/12 05:43:46;;;;;;;3.72;2.60;;;22.30;99.90;;;22.52;63.98;97794.25;5045419;28;20033;-37
2022/06/12 05:46:14;;;;;;;3.72;2.25;;;22.10;99.90;;;22.12;65.23;97782.09;5044536;28;20570;-37
2022/06/12 05:48:41;;;;;;;2.90;2.50;;;21.80;99.90;;;21.89;65.75;97797.34;5046965;28;20163;-37
2022/06/12 05:51:10;;;;;;;3.47;2.65;;;21.60;99.90;;;21.64;66.12;97787.63;5043514;28;20028;-37
2022/06/12 05:53:36;;;;;;;2.67;2.28;;;21.40;99.90;;;21.48;68.24;97787.91;5044210;28;20025;-37
2022/06/12 05:56:06;;;;;;;2.60;2.30;;;21.20;99.90;;;21.36;68.03;97791.47;5047005;28;20033;-37
2022/06/12 05:58:34;;;;;;;2.92;2.30;;;21.10;99.90;;;21.24;68.51;97787.88;5045979;28;20025;-37
2022/06/12 06:01:00;;;;;;;2.88;2.10;;;21.10;99.90;;;21.20;69.23;97786.41;5046681;28;20025;-36
2022/06/12 06:03:26;;;;;;;3.35;2.70;;;21.00;99.90;;;21.15;69.93;97785.88;5047183;28;20025;-37
2022/06/12 06:05:51;;;;;;;9.35;3.25;;;21.00;99.90;;;21.08;71.14;97790.84;5045099;28;20029;-37
2022/06/12 06:08:18;;;;;;;5.32;2.70;;;21.00;99.90;;;21.05;71.58;97785.72;5042328;28;20107;-37
2022/06/12 06:10:44;;;;;;;3.67;2.75;;;21.00;99.90;;;21.11;72.73;97792.44;5042027;28;20021;-37
2022/06/12 06:13:11;;;;;;;2.88;2.45;;;21.00;99.90;;;21.11;72.63;97793.28;5043210;28;20082;-36
2022/06/12 06:15:37;;;;;;;4.22;2.67;;;21.00;99.90;;;21.10;72.31;97794.28;5045702;28;20021;-36
2022/06/12 06:18:05;;;;;;;4.38;2.50;;;21.00;99.90;;;21.00;72.44;97769.09;5047115;28;20025;-37
2022/06/12 06:20:35;;;;;;;3.70;2.80;;;21.00;99.90;;;21.14;72.37;97800.28;5061448;28;20025;-37
2022/06/12 06:23:01;;;;;;;3.83;2.63;;;21.00;99.90;;;21.12;72.99;97791.47;5046959;28;20516;-37
2022/06/12 06:25:29;;;;;;;5.75;2.60;;;21.00;99.90;;;21.20;72.54;97793.59;5044832;28;20033;-37
2022/06/12 06:27:56;;;;;;;3.58;2.35;;;21.10;99.90;;;21.26;71.70;97799.34;5045255;28;20477;-37
2022/06/12 06:30:24;;;;;;;4.63;2.70;;;21.10;99.90;;;21.19;67.74;97800.75;5043214;28;20503;-37
2022/06/12 06:32:51;;;;;;;4.18;2.30;;;21.20;99.90;;;21.27;68.48;97800.22;5045285;28;20044;-37
2022/06/12 06:35:17;;;;;;;2.67;2.47;;;21.20;99.90;;;21.35;68.88;97797.81;5046488;28;20033;-37
2022/06/12 06:37:44;;;;;;;4.40;2.47;;;21.30;99.90;;;21.39;67.16;97801.13;5047794;28;20016;-37
2022/06/12 06:40:12;;;;;;;3.00;2.50;;;21.40;99.90;;;21.48;67.54;97804.00;5046613;28;20044;-37
2022/06/12 06:42:39;;;;;;;3.53;2.75;;;21.40;99.90;;;21.59;67.42;97805.00;5045502;28;20028;-37
2022/06/12 06:47:51;;;;;;;5.50;3.03;;;21.60;99.90;;;21.60;66.85;97801.38;5045271;28;20098;-37
2022/06/12 06:50:20;;;;;;;4.28;2.38;;;21.60;99.90;;;21.72;67.17;97805.81;5046655;28;20021;-37
2022/06/12 06:52:45;;;;;;;2.63;2.20;;;21.70;99.90;;;21.84;67.20;97804.88;5050499;28;20044;-37
2022/06/12 06:55:12;;;;;;;4.43;2.95;;;21.80;99.90;;;21.94;65.45;97810.38;5048952;28;20033;-37
2022/06/12 06:57:43;;;;;;;3.70;2.17;;;21.90;99.90;;;22.04;65.50;97813.25;5043833;28;20033;-37
2022/06/12 07:00:14;;;;;;;5.38;2.72;;;22.00;99.90;;;22.13;64.99;97815.22;5046211;28;20501;-37
2022/06/12 07:02:40;;;;;;;4.55;2.13;;;22.10;99.90;;;22.19;64.16;97797.75;5065463;28;20469;-37
2022/06/12 07:05:07;;;;;;;3.15;2.50;;;22.20;99.90;;;22.29;64.50;97813.06;5058497;22;20516;-43
2022/06/12 07:07:36;;;;;;;3.00;2.45;;;22.30;99.90;;;22.45;64.10;97806.47;5054312;28;20024;-43
2022/06/12 07:10:06;;;;;;;3.38;2.33;;;22.40;99.90;;;22.53;62.49;97809.41;5046341;28;20028;-44
2022/06/12 07:12:32;;;;;;;5.40;2.35;;;22.50;99.90;;;22.53;61.99;97797.81;5048603;28;20044;-43
2022/06/12 07:14:58;;;;;;;3.30;2.28;;;22.60;99.90;;;22.71;60.16;97819.69;5032358;28;20525;-42
2022/06/12 07:17:23;;;;;;;3.10;2.30;;;22.70;99.90;;;22.76;60.09;97818.34;5031595;28;20033;-42
2022/06/12 07:19:49;;;;;;;4.07;2.58;;;22.70;99.90;;;22.82;60.32;97808.91;5031054;28;20017;-43
2022/06/12 07:22:15;;;;;;;2.38;2.10;;;22.80;99.90;;;22.98;59.97;97813.91;5039577;28;20033;-42
2022/06/12 07:24:41;;;;;;;3.17;2.05;;;22.90;99.90;;;23.08;59.21;97814.91;5026183;28;20025;-42
2022/06/12 07:27:07;;;;;;;4.90;2.10;;;23.00;99.90;;;23.16;56.92;97816.97;5022351;28;20029;-43
2022/06/12 07:29:33;;;;;;;5.05;2.63;;;23.10;99.70;;;23.14;56.22;97802.81;5025650;28;20025;-42
2022/06/12 07:31:59;;;;;;;3.17;2.05;;;23.10;98.80;;;23.25;57.67;97816.22;5022357;28;20048;-43
2022/06/12 07:34:25;;;;;;;3.97;2.33;;;23.20;99.20;;;23.25;56.51;97806.31;5022364;28;20029;-43
2022/06/12 07:36:53;;;;;;;3.22;2.42;;;23.30;98.80;;;23.36;56.64;97807.25;5020005;28;20033;-43
2022/06/12 07:39:25;;;;;;;3.78;2.40;;;23.30;99.00;;;23.39;54.87;97799.78;5029030;28;20040;-42
2022/06/12 07:41:52;;;;;;;2.88;2.28;;;23.40;98.10;;;23.41;54.79;97796.97;5022135;28;20107;-43
2022/06/12 07:44:22;;;;;;;2.92;1.95;;;23.40;98.00;;;23.49;55.85;97797.19;5028877;28;20037;-43
2022/06/12 07:46:51;;;;;;;4.00;2.17;;;23.50;98.20;;;23.55;56.11;97793.13;5029224;28;20449;-44
2022/06/12 07:49:18;;;;;;;3.22;2.33;;;23.50;98.40;;;23.59;55.36;97794.56;5028479;28;20040;-42
2022/06/12 07:51:44;;;;;;;2.90;2.55;;;23.60;97.90;;;23.72;54.98;97802.47;5019589;28;20112;-43
2022/06/12 07:54:11;;;;;;;4.18;2.38;;;23.70;97.70;;;23.85;54.96;97794.22;5029367;28;20040;-43
2022/06/12 07:56:37;;;;;;;4.05;2.38;;;23.80;97.70;;;23.95;54.95;97790.63;5041024;28;20047;-43
2022/06/12 07:59:04;;;;;;;3.63;2.72;;;23.90;97.60;;;24.06;54.40;97794.25;5031987;28;20025;-43
2022/06/12 08:01:30;;;;;;;4.20;2.42;;;24.00;97.40;;;23.99;52.81;97791.22;5027056;28;20053;-42
2022/06/12 08:03:57;;;;;;;6.55;2.38;;;24.00;96.40;;;23.89;52.71;97779.53;5027369;28;20033;-42
2022/06/12 08:06:24;;;;;;;2.90;2.42;;;23.90;96.20;;;23.94;54.45;97786.25;5020572;28;20037;-43
2022/06/12 08:08:51;;;;;;;3.03;2.10;;;23.90;96.90;;;24.08;53.65;97781.50;5030439;28;20040;-42
2022/06/12 08:11:17;;;;;;;3.17;2.28;;;24.00;96.60;;;24.18;54.96;97780.56;5026425;28;20112;-44
2022/06/12 08:13:43;;;;;;;3.80;2.63;;;24.10;96.90;;;24.18;52.38;97774.34;5021273;28;20097;-42
2022/06/12 08:16:10;;;;;;;4.68;2.42;;;24.20;96.00;;;24.23;52.56;97774.78;5032418;28;20028;-43
2022/06/12 08:18:36;;;;;;;5.93;2.28;;;24.20;96.00;;;24.35;52.60;97789.03;5027775;28;20024;-43
2022/06/12 08:21:08;;;;;;;4.03;2.40;;;24.30;96.00;;;24.47;54.43;97789.81;5032711;28;20030;-43
2022/06/12 08:23:38;;;;;;;6.25;2.97;;;24.40;96.70;;;24.54;50.87;97788.31;5024809;28;20489;-43
2022/06/12 08:26:12;;;;;;;2.78;2.10;;;24.50;95.60;;;24.58;51.74;97782.53;5023579;28;20121;-43
2022/06/12 08:28:48;;;;;;;3.95;2.38;;;24.50;95.40;;;24.64;52.12;97788.34;5022767;28;20100;-43
2022/06/12 08:31:19;;;;;;;2.88;2.25;;;24.60;95.60;;;24.69;52.39;97788.78;5030837;28;20092;-42
2022/06/12 08:33:48;;;;;;;3.70;2.23;;;24.70;95.60;;;24.72;50.07;97781.28;5023332;28;20022;-46
2022/06/12 08:36:17;;;;;;;3.33;2.33;;;24.70;94.90;;;24.61;49.14;97785.94;5025261;28;20267;-43
2022/06/12 08:38:43;;;;;;;3.05;2.20;;;24.60;93.30;;;24.67;49.87;97788.06;5021804;28;20042;-42
2022/06/12 08:41:18;;;;;;;3.38;2.17;;;24.60;93.70;;;24.71;49.22;97781.41;5032969;28;20531;-43
2022/06/12 08:44:05;;;;;;;2.78;2.20;;;24.70;93.60;;;24.73;49.58;97774.06;5032146;28;20032;-43
2022/06/12 08:46:56;;;;;;;5.07;2.40;;;24.70;93.80;;;24.85;49.42;97781.03;5021740;28;20293;-43
2022/06/12 08:49:50;;;;;;;4.33;2.30;;;24.80;93.70;;;24.93;49.08;97770.41;5024359;28;20056;-43
2022/06/12 08:52:43;;;;;;;4.45;2.40;;;24.90;93.20;;;25.06;49.30;97769.31;5029046;28;20319;-46
2022/06/12 08:55:27;;;;;;;5.20;2.45;;;25.00;93.30;;;25.08;49.61;97770.88;5022332;28;20033;-43
2022/06/12 08:58:30;;;;;;;3.95;2.60;;;25.10;92.60;;;25.17;47.80;97773.75;5027842;28;20025;-42
2022/06/12 09:00:58;;;;;;;4.00;2.10;;;25.20;92.10;;;25.21;46.15;97767.91;5035777;28;20029;-43
2022/06/12 09:03:29;;;;;;;3.63;2.25;;;25.20;91.10;;;25.17;46.35;97771.03;5018065;28;20048;-43
2022/06/12 09:06:25;;;;;;;6.50;2.22;;;25.20;91.10;;;25.17;46.36;97762.94;5017502;28;20537;-43
2022/06/12 09:09:22;;;;;;;5.15;2.50;;;25.20;90.90;;;25.19;47.18;97751.00;5025368;28;20073;-44
2022/06/12 09:12:18;;;;;;;4.53;2.22;;;25.20;91.40;;;25.26;47.48;97756.72;5027368;28;20029;-45
2022/06/12 09:15:16;;;;;;;3.55;2.25;;;25.20;91.50;;;25.33;47.32;97753.31;5027983;28;20057;-43
2022/06/12 09:18:05;;;;;;;4.10;2.50;;;25.30;91.30;;;25.43;47.46;97750.66;5032286;28;20473;-44
2022/06/12 09:21:05;;;;;;;3.83;2.30;;;25.40;91.20;;;25.40;47.74;97748.22;5027643;28;20033;-44
2022/06/12 09:23:51;;;;;;;3.80;2.30;;;25.40;91.30;;;25.43;47.81;97752.47;5026565;28;20036;-43
2022/06/12 09:26:43;;;;;;;4.70;2.70;;;25.40;91.30;;;25.23;45.43;97749.75;5031936;28;20814;-45
2022/06/12 09:29:47;;;;;;;5.03;2.55;;;25.40;89.20;;;24.99;45.08;97746.59;5019569;28;20485;-44
2022/06/12 09:32:58;;;;;;;3.72;2.40;;;25.20;88.40;;;24.93;46.40;97750.69;5016978;28;20047;-43
2022/06/12 09:35:48;;;;;;;3.53;2.38;;;25.10;89.80;;;24.99;46.71;97749.28;4970254;28;20041;-44
2022/06/12 09:38:34;;;;;;;2.85;2.35;;;25.00;90.20;;;25.13;47.61;97735.38;5019726;28;20018;-43
2022/06/12 09:41:28;;;;;;;6.30;2.60;;;25.10;90.50;;;25.26;48.77;97730.59;5025229;28;20064;-43
2022/06/12 09:44:25;;;;;;;6.28;2.80;;;25.20;91.20;;;25.46;47.55;97742.25;5028553;28;20386;-46
2022/06/12 09:47:19;;;;;;;5.45;2.50;;;25.40;90.90;;;25.66;47.30;97739.53;5034600;28;21212;-45
2022/06/12 09:50:01;;;;;;;4.90;2.50;;;25.60;90.90;;;25.71;45.11;97738.09;5025150;28;20036;-45
2022/06/12 09:52:37;;;;;;;3.60;2.50;;;25.70;89.10;;;25.69;45.47;97732.00;5016786;28;20444;-46
2022/06/12 09:55:12;;;;;;;3.58;2.70;;;25.70;87.70;;;25.52;44.56;97732.75;5036846;28;20374;-47
2022/06/12 09:57:51;;;;;;;4.65;2.40;;;25.70;86.90;;;25.45;44.02;97731.59;5026215;28;20025;-43
2022/06/12 10:00:40;;;;;;;2.33;2.10;;;25.60;86.10;;;25.45;44.89;97728.91;5017704;28;20026;-42
2022/06/12 10:03:20;;;;;;;3.33;2.10;;;25.50;85.60;;;25.51;44.45;97717.53;5038123;28;20026;-45
2022/06/12 10:05:59;;;;;;;4.03;2.20;;;25.60;86.00;;;25.65;43.04;97719.78;5024190;28;20041;-43
2022/06/12 10:08:52;;;;;;;2.65;2.00;;;25.60;84.10;;;25.74;42.42;97717.22;5039978;28;20322;-43
2022/06/12 10:11:29;;;;;;;3.67;2.40;;;25.70;83.00;;;25.86;43.12;97716.03;5044393;28;20064;-44
2022/06/12 10:14:25;;;;;;;6.45;2.22;;;25.80;83.50;;;26.03;42.81;97715.34;5020910;28;20040;-44
2022/06/12 10:17:02;;;;;;;4.55;2.08;;;26.00;83.60;;;26.22;42.63;97702.75;5026111;28;20275;-43
2022/06/12 10:19:46;;;;;;;3.28;2.05;;;26.10;82.60;;;26.42;43.16;97700.84;5025575;28;20022;-45
2022/06/12 10:22:30;;;;;;;4.25;2.20;;;26.40;84.00;;;26.42;42.22;97687.31;5017302;28;20018;-43
2022/06/12 10:24:58;;;;;;;4.30;2.70;;;26.50;82.60;;;26.56;43.20;97697.66;5021993;28;20026;-43
2022/06/12 10:27:26;;;;;;;2.70;2.00;;;26.60;83.80;;;26.72;43.24;97696.16;5023499;28;20079;-47
2022/06/12 10:30:00;;;;;;;4.55;2.53;;;26.70;83.70;;;26.82;40.91;97700.50;5026413;28;20041;-43
2022/06/12 10:32:53;;;;;;;4.20;2.50;;;26.90;79.70;;;26.85;42.87;97697.50;5015314;28;20026;-44
2022/06/12 10:35:23;;;;;;;5.45;2.42;;;26.90;82.60;;;26.78;45.86;97699.09;5021448;28;20029;-44
2022/06/12 10:37:50;;;;;;;3.20;1.98;;;26.70;86.90;;;26.79;43.70;97698.13;5022451;28;20029;-47
2022/06/12 10:40:22;;;;;;;3.28;2.38;;;26.70;85.30;;;26.81;41.83;97701.50;5042433;28;20022;-44
2022/06/12 10:43:23;;;;;;;2.88;1.98;;;26.70;81.70;;;26.75;42.23;97696.69;5025924;28;20069;-45
2022/06/12 10:46:00;;;;;;;3.85;2.35;;;26.70;81.60;;;26.53;42.89;97692.53;5022845;28;20482;-45
2022/06/12 10:48:30;;;;;;;4.32;2.15;;;26.40;81.50;;;26.41;42.94;97689.16;5027753;28;20053;-46
2022/06/12 10:51:06;;;;;;;2.63;1.98;;;26.20;82.20;;;26.19;43.94;97693.09;5029025;28;20083;-43
2022/06/12 10:53:34;;;;;;;3.75;2.50;;;26.10;82.20;;;26.08;43.95;97686.03;5028063;28;20537;-45
2022/06/12 10:56:17;;;;;;;5.40;2.53;;;26.00;83.00;;;26.21;44.15;97674.03;5025040;28;20033;-47
2022/06/12 10:59:03;;;;;;;7.22;2.58;;;26.10;83.70;;;26.18;43.94;97674.31;5023947;28;20025;-43